LFTW/FNI METAR and TAF weather

Enter ICAO airport designator
Station Type Date Time Source
LFTW METAR 2022/01/26 07:00 UTC NOAA

LFTW 260700Z AUTO 31003KT CAVOK M01/M01 Q1029 NOSIG


Station Type Date Time Source
LFTW Decoded METAR 2022/01/26 07:00 UTC NOAA

Nimes / Garons, France (LFTW) 43-45N 004-25E 96M
Jan 26, 2022 - 02:00 AM EST / 2022.01.26 0700 UTC
Wind: from the NW (310 degrees) at 3 MPH (3 KT):0
Visibility: greater than 7 mile(s):0
Temperature: 30 F (-1 C)
Dew Point: 30 F (-1 C)
Relative Humidity: 100%
Pressure (altimeter): 30.39 in. Hg (1029 hPa)
ob: LFTW 260700Z AUTO 31003KT CAVOK M01/M01 Q1029 NOSIG
cycle: 7

Station Type Date Time Source
LFTW TAF 2022/01/26 03:22 UTC NOAA

TAF LFTW 260200Z 2603/2703 VRB03KT CAVOK PROB30
TEMPO 2603/2606 2000 BR

Example: see airport list